Time;durP1;ratioP1;P1;durP2;ratioP2;P2;SDS_P1;SDS_P2;PMS_P1;PMS_P2;Temp;Humidity;BMP_temperature;BMP_pressure;BME280_temperature;BME280_humidity;BME280_pressure;Samples;Min_cycle;Max_cycle;Signal;HPM_P1;HPM_P2
2023/01/17 00:01:26;;;;;;;4.20;1.80;;;;;;;15.08;59.20;97020.09;4992887;28;20146;-69
2023/01/17 00:12:05;;;;;;;3.08;1.63;;;;;;;15.10;59.49;96998.03;4993198;28;20053;-69
2023/01/17 00:14:31;;;;;;;3.53;1.70;;;;;;;15.12;59.23;96990.03;4993992;28;20026;-68
2023/01/17 00:16:56;;;;;;;3.22;1.52;;;;;;;15.13;59.42;96992.56;4996574;28;20512;-69
2023/01/17 01:34:06;;;;;;;2.10;0.98;;;;;;;15.36;59.02;96789.41;5014779;28;20036;-69
2023/01/17 01:36:32;;;;;;;1.95;1.00;;;;;;;15.34;59.22;96791.34;5014856;28;20038;-69
2023/01/17 01:38:57;;;;;;;2.25;1.00;;;;;;;15.36;59.14;96797.28;5007031;28;20465;-69
2023/01/17 01:41:23;;;;;;;2.42;1.15;;;;;;;15.35;59.41;96800.88;4995209;28;20030;-69
2023/01/17 01:43:54;;;;;;;2.67;1.08;;;;;;;15.35;59.37;96806.16;4995127;28;20118;-69
2023/01/17 01:46:24;;;;;;;2.03;1.02;;;;;;;15.39;59.52;96812.81;4994891;28;20026;-69
2023/01/17 01:49:04;;;;;;;2.38;1.30;;;;;;;15.41;59.29;96821.41;5000696;28;20033;-69
2023/01/17 01:51:37;;;;;;;1.85;1.00;;;;;;;15.43;59.42;96819.50;5014649;28;20072;-69
2023/01/17 01:54:15;;;;;;;1.95;1.00;;;;;;;15.43;59.59;96824.75;5014216;28;20034;-69
2023/01/17 01:56:42;;;;;;;3.22;1.25;;;;;;;15.43;59.22;96819.50;5014315;28;20484;-69
2023/01/17 01:59:12;;;;;;;1.70;0.90;;;;;;;15.44;59.28;96822.00;5005416;28;20033;-69
2023/01/17 02:01:38;;;;;;;2.03;0.90;;;;;;;15.46;59.33;96808.75;4994837;28;20452;-69
2023/01/17 02:04:08;;;;;;;3.65;1.13;;;;;;;15.47;59.34;96809.56;5004858;28;20057;-70
2023/01/17 02:06:40;;;;;;;1.92;0.80;;;;;;;15.48;59.42;96812.06;5013961;28;20049;-69
2023/01/17 02:09:09;;;;;;;2.67;0.90;;;;;;;15.48;59.31;96806.81;5005830;28;20455;-69
2023/01/17 02:11:37;;;;;;;1.88;1.00;;;;;;;15.51;59.15;96795.22;4994617;28;20037;-69
2023/01/17 02:14:03;;;;;;;1.73;0.82;;;;;;;15.48;59.32;96777.91;4994507;28;20046;-69
2023/01/17 02:17:02;;;;;;;2.42;0.63;;;;;;;15.48;59.45;96758.66;4994298;28;20049;-68
2023/01/17 02:19:36;;;;;;;1.17;0.70;;;;;;;15.48;59.38;96770.03;4907039;29;20052;-69
2023/01/17 02:22:19;;;;;;;2.05;1.13;;;;;;;15.49;59.48;96774.31;4899173;29;20095;-69
2023/01/17 02:25:08;;;;;;;1.83;0.70;;;;;;;15.49;59.67;96782.22;4915141;29;20040;-70
2023/01/17 02:27:56;;;;;;;2.60;0.82;;;;;;;15.51;59.59;96767.16;4914622;29;20111;-70
2023/01/17 02:30:32;;;;;;;2.38;0.90;;;;;;;15.54;59.63;96772.16;4914624;29;20115;-69
2023/01/17 02:33:03;;;;;;;2.23;1.00;;;;;;;15.53;59.66;96762.59;4913833;29;20020;-69
2023/01/17 02:35:39;;;;;;;1.75;0.80;;;;;;;15.54;59.75;96738.00;4914820;29;20370;-69
2023/01/17 02:38:04;;;;;;;;;;;;;;;15.55;59.35;96729.13;4914604;29;20044;-68
2023/01/17 02:40:39;;;;;;;2.07;0.93;;;;;;;15.55;59.59;96741.47;4914799;29;20050;-68
2023/01/17 02:43:09;;;;;;;1.88;0.90;;;;;;;15.59;59.41;96770.97;4914468;29;20078;-69
2023/01/17 02:45:35;;;;;;;2.25;0.88;;;;;;;15.60;59.63;96793.66;4914398;29;20152;-69
2023/01/17 02:48:00;;;;;;;1.85;0.73;;;;;;;15.61;59.71;96814.56;4914107;29;20040;-69
2023/01/17 02:50:36;;;;;;;1.55;0.70;;;;;;;15.62;59.40;96807.50;4914675;29;20047;-69
2023/01/17 02:53:17;;;;;;;1.92;0.77;;;;;;;15.63;59.49;96798.66;4914601;29;20036;-69
2023/01/17 02:56:01;;;;;;;1.48;0.85;;;;;;;15.63;59.62;96767.94;4936095;28;20046;-70
2023/01/17 02:58:29;;;;;;;3.25;0.80;;;;;;;15.64;59.76;96759.09;4995605;28;20408;-70
2023/01/17 03:01:13;;;;;;;1.67;0.75;;;;;;;15.66;59.82;96740.56;5012627;28;20045;-69
2023/01/17 03:03:47;;;;;;;1.73;0.70;;;;;;;15.65;59.62;96741.53;5012918;28;20094;-70
2023/01/17 03:06:25;;;;;;;1.45;0.60;;;;;;;15.67;59.73;96734.34;5013144;28;20092;-69
2023/01/17 03:08:52;;;;;;;1.85;0.75;;;;;;;15.67;59.91;96726.47;5007529;28;20065;-71
2023/01/17 03:11:18;;;;;;;1.60;0.70;;;;;;;15.67;59.82;96710.69;4993303;28;20030;-70
2023/01/17 03:13:43;;;;;;;1.17;0.50;;;;;;;15.70;59.54;96715.72;4993437;28;20022;-70
2023/01/17 03:16:18;;;;;;;1.38;0.60;;;;;;;15.72;59.71;96719.03;4992491;28;20557;-70
2023/01/17 03:18:44;;;;;;;2.78;1.02;;;;;;;15.72;59.75;96716.41;4997199;28;20080;-70
2023/01/17 03:21:09;;;;;;;1.10;0.63;;;;;;;15.73;59.66;96720.69;5012674;28;20045;-70
2023/01/17 03:23:35;;;;;;;1.80;0.70;;;;;;;15.73;59.87;96710.19;5012872;28;20025;-70
2023/01/17 03:26:01;;;;;;;1.73;0.80;;;;;;;15.76;59.66;96704.69;5009616;28;20014;-70
2023/01/17 03:28:26;;;;;;;1.10;0.70;;;;;;;15.76;59.88;96704.69;5011026;28;20026;-69
2023/01/17 03:30:51;;;;;;;2.22;0.57;;;;;;;15.77;59.63;96687.09;4990965;28;20129;-71
2023/01/17 03:33:17;;;;;;;1.00;0.50;;;;;;;15.78;59.69;96705.38;4993088;28;20026;-69
2023/01/17 03:35:46;;;;;;;0.98;0.52;;;;;;;15.78;59.80;96723.78;4992761;28;20030;-68
2023/01/17 03:38:12;;;;;;;2.13;0.88;;;;;;;15.82;59.87;96721.72;4992785;28;20026;-70
2023/01/17 03:40:38;;;;;;;1.85;0.70;;;;;;;15.82;59.92;96733.09;5012304;28;20033;-67
2023/01/17 03:43:03;;;;;;;1.38;0.73;;;;;;;15.81;59.84;96728.81;5012718;28;20030;-70
2023/01/17 03:45:29;;;;;;;1.35;0.80;;;;;;;15.82;59.86;96719.94;5012407;28;20030;-70
2023/01/17 03:47:56;;;;;;;1.70;0.50;;;;;;;15.84;59.79;96702.25;5012413;28;20030;-69
2023/01/17 03:50:22;;;;;;;2.35;0.73;;;;;;;15.84;59.75;96683.84;4998408;28;20550;-69
2023/01/17 03:52:47;;;;;;;1.40;0.60;;;;;;;15.86;59.82;96677.59;4996930;28;20022;-69
2023/01/17 03:55:13;;;;;;;2.20;0.70;;;;;;;15.88;59.64;96691.47;4997103;28;20114;-70
2023/01/17 03:57:38;;;;;;;1.45;0.52;;;;;;;15.88;59.97;96683.59;4996870;28;20034;-69
2023/01/17 04:00:04;;;;;;;2.00;0.82;;;;;;;15.89;59.66;96677.38;5010686;28;20107;-70
2023/01/17 04:02:30;;;;;;;1.15;0.57;;;;;;;15.89;59.95;96693.16;5016622;28;20056;-69
2023/01/17 04:04:55;;;;;;;0.95;0.60;;;;;;;15.91;59.86;96680.69;4998620;28;20077;-70
2023/01/17 04:07:21;;;;;;;2.80;0.65;;;;;;;15.90;59.77;96665.88;4996884;28;20034;-69
2023/01/17 04:09:47;;;;;;;0.82;0.47;;;;;;;15.92;59.86;96662.19;5008550;28;20464;-69
2023/01/17 04:12:15;;;;;;;0.88;0.47;;;;;;;15.94;59.81;96648.91;5016224;28;20037;-69
2023/01/17 04:14:41;;;;;;;0.80;0.50;;;;;;;15.94;59.99;96633.13;5015958;28;20026;-70
2023/01/17 04:17:11;;;;;;;1.77;0.70;;;;;;;15.94;59.91;96628.69;5014545;28;20050;-70
2023/01/17 04:19:36;;;;;;;1.02;0.45;;;;;;;15.93;59.89;96603.38;5009116;28;20451;-70
2023/01/17 04:22:02;;;;;;;0.85;0.50;;;;;;;15.95;59.90;96590.09;5016381;28;20057;-69
2023/01/17 04:24:27;;;;;;;0.70;0.40;;;;;;;15.96;59.97;96578.59;5015950;28;20088;-69
2023/01/17 04:26:53;;;;;;;1.17;0.52;;;;;;;15.98;59.84;96547.72;5016129;28;20030;-70
2023/01/17 04:29:18;;;;;;;0.77;0.40;;;;;;;15.97;60.00;96517.13;5015629;28;20025;-69
2023/01/17 04:31:45;;;;;;;0.85;0.40;;;;;;;15.99;59.80;96535.44;5015854;28;20045;-70
2023/01/17 04:34:10;;;;;;;1.25;0.60;;;;;;;15.99;59.80;96538.91;5015412;28;20029;-70
2023/01/17 04:36:36;;;;;;;1.48;0.50;;;;;;;16.00;59.92;96532.66;5015598;28;20022;-69
2023/01/17 04:39:02;;;;;;;1.85;0.60;;;;;;;16.01;59.77;96513.28;4999006;28;20101;-70
2023/01/17 04:41:27;;;;;;;1.48;0.50;;;;;;;16.01;59.68;96497.50;4996178;28;20050;-69
2023/01/17 04:43:53;;;;;;;0.80;0.50;;;;;;;16.03;59.71;96511.34;4995946;28;20022;-69
2023/01/17 04:46:18;;;;;;;2.25;0.63;;;;;;;16.04;59.94;96517.44;4995804;28;20385;-70
2023/01/17 04:48:43;;;;;;;0.60;0.40;;;;;;;16.05;60.05;96530.47;5009677;28;20022;-70
2023/01/17 04:51:09;;;;;;;1.10;0.50;;;;;;;16.06;59.88;96542.66;5015281;28;20025;-70
2023/01/17 04:53:34;;;;;;;1.00;0.40;;;;;;;16.07;60.00;96548.72;5015239;28;20498;-69
2023/01/17 04:56:00;;;;;;;1.00;0.43;;;;;;;16.07;59.81;96554.00;5015001;28;20112;-69
2023/01/17 04:58:26;;;;;;;2.05;0.52;;;;;;;16.06;60.08;96547.91;5002476;28;20392;-69
2023/01/17 05:00:52;;;;;;;1.35;0.50;;;;;;;16.07;59.88;96528.53;4995336;28;20029;-70
2023/01/17 05:03:19;;;;;;;1.08;0.52;;;;;;;16.07;60.02;96533.78;5000068;28;20029;-69
2023/01/17 05:05:45;;;;;;;1.05;0.50;;;;;;;16.09;59.92;96531.03;5014864;28;20029;-69
2023/01/17 05:08:10;;;;;;;1.15;0.52;;;;;;;16.09;59.79;96542.38;5005760;28;20018;-70
2023/01/17 05:10:35;;;;;;;0.80;0.30;;;;;;;16.08;59.94;96535.44;4995402;28;20030;-69
2023/01/17 05:13:01;;;;;;;1.33;0.63;;;;;;;16.10;59.85;96559.84;4995740;28;20014;-70
2023/01/17 05:15:27;;;;;;;1.40;0.60;;;;;;;16.11;60.08;96571.19;4995519;28;20472;-69
2023/01/17 05:17:53;;;;;;;1.17;0.40;;;;;;;16.13;60.22;96584.22;5001562;28;20109;-69
2023/01/17 05:20:21;;;;;;;1.42;0.68;;;;;;;16.12;60.13;96582.56;5015204;28;20492;-71
2023/01/17 05:22:56;;;;;;;1.40;0.50;;;;;;;16.14;60.00;96580.59;5005838;28;20531;-70
2023/01/17 05:25:23;;;;;;;1.08;0.50;;;;;;;16.12;60.06;96590.44;4994814;28;20037;-68
2023/01/17 05:27:48;;;;;;;0.73;0.30;;;;;;;16.14;60.16;96570.94;5000972;28;20029;-69
2023/01/17 05:30:14;;;;;;;0.60;0.30;;;;;;;16.14;59.84;96554.31;5014118;28;20022;-68
2023/01/17 05:32:40;;;;;;;1.85;0.47;;;;;;;16.16;59.73;96550.56;5014358;28;20108;-70
2023/01/17 05:35:06;;;;;;;0.70;0.38;;;;;;;16.15;59.95;96546.28;5014669;28;20034;-69
2023/01/17 05:37:31;;;;;;;0.70;0.40;;;;;;;16.17;59.96;96546.16;5010061;28;20099;-69
2023/01/17 05:39:57;;;;;;;0.73;0.35;;;;;;;16.17;60.14;96543.53;4994824;28;20077;-70
2023/01/17 05:42:22;;;;;;;1.00;0.50;;;;;;;16.18;60.06;96550.44;4994615;28;20081;-70
2023/01/17 05:44:48;;;;;;;0.73;0.40;;;;;;;16.19;59.86;96547.69;4995108;28;20527;-70
2023/01/17 05:47:13;;;;;;;1.58;0.50;;;;;;;16.18;59.71;96538.09;4996078;28;20515;-69
2023/01/17 05:49:38;;;;;;;0.73;0.43;;;;;;;16.16;59.89;96531.31;5014641;28;20022;-70
2023/01/17 05:52:04;;;;;;;1.70;0.40;;;;;;;16.18;59.81;96532.03;5014282;28;20042;-69
2023/01/17 05:54:29;;;;;;;1.20;0.47;;;;;;;16.18;60.15;96537.28;5014102;28;20037;-69
2023/01/17 05:56:55;;;;;;;0.77;0.40;;;;;;;16.18;59.75;96539.94;5014182;28;20030;-67
2023/01/17 05:59:20;;;;;;;0.90;0.35;;;;;;;16.19;60.13;96537.16;4996483;28;20054;-70
2023/01/17 06:01:45;;;;;;;1.10;0.50;;;;;;;16.20;60.22;96543.25;4994468;28;20038;-70
2023/01/17 06:04:11;;;;;;;1.25;0.50;;;;;;;16.22;60.04;96551.81;5005226;28;20120;-69
2023/01/17 06:06:36;;;;;;;0.52;0.35;;;;;;;16.21;60.23;96558.06;5012890;28;20475;-69
2023/01/17 06:09:02;;;;;;;1.20;0.40;;;;;;;16.24;60.07;96597.28;4998422;28;20088;-70
2023/01/17 06:11:27;;;;;;;0.50;0.30;;;;;;;16.24;59.88;96607.78;4994269;28;20030;-67
2023/01/17 06:13:53;;;;;;;1.17;0.50;;;;;;;16.23;60.00;96585.09;4993977;28;20132;-69
2023/01/17 06:16:18;;;;;;;1.15;0.68;;;;;;;16.23;59.99;96556.16;5005893;28;20029;-69
2023/01/17 06:18:44;;;;;;;1.67;0.50;;;;;;;16.24;59.95;96560.44;5002644;28;20042;-68
2023/01/17 06:21:09;;;;;;;4.70;0.60;;;;;;;16.24;59.61;96603.34;5002897;28;20041;-68
2023/01/17 06:23:34;;;;;;;3.70;0.85;;;;;;;16.24;59.77;96618.31;5003376;28;20561;-71
2023/01/17 06:26:03;;;;;;;5.05;1.15;;;;;;;16.21;59.71;96614.16;5004563;28;20113;-69
2023/01/17 06:28:29;;;;;;;5.50;2.00;;;;;;;16.23;59.63;96621.91;5008603;28;20037;-68
2023/01/17 06:30:55;;;;;;;9.05;2.58;;;;;;;16.22;60.11;96604.44;4996478;28;20022;-68
2023/01/17 06:33:20;;;;;;;35.22;10.95;;;;;;;16.32;63.14;96615.84;4995882;28;20033;-69
2023/01/17 06:35:47;;;;;;;30.88;11.88;;;;;;;16.40;64.01;96619.59;5003508;28;20152;-67
2023/01/17 06:38:13;;;;;;;33.63;12.10;;;;;;;16.45;63.74;96605.09;5003577;28;20036;-67
2023/01/17 06:40:39;;;;;;;33.92;11.07;;;;;;;16.51;64.16;96608.97;5005591;28;20022;-68
2023/01/17 06:43:04;;;;;;;30.42;10.65;;;;;;;16.57;64.01;96565.50;5003899;28;20085;-68
2023/01/17 06:45:32;;;;;;;30.15;10.88;;;;;;;16.60;63.90;96563.41;5002016;28;20030;-68
2023/01/17 06:47:59;;;;;;;33.22;11.20;;;;;;;16.64;63.46;96604.31;5002716;28;20500;-68
2023/01/17 06:50:25;;;;;;;32.17;9.60;;;;;;;16.68;63.26;96625.09;5007903;28;20496;-69
2023/01/17 06:53:05;;;;;;;27.90;9.23;;;;;;;16.69;63.88;96603.03;5003794;28;20026;-68
2023/01/17 06:55:32;;;;;;;28.83;9.32;;;;;;;16.74;63.51;96640.34;5003781;28;20090;-69
2023/01/17 06:58:01;;;;;;;26.20;8.88;;;;;;;16.79;63.69;96653.94;5002354;28;20591;-69
2023/01/17 07:00:27;;;;;;;26.25;8.30;;;;;;;16.81;63.07;96616.94;5012532;28;20033;-68
2023/01/17 07:02:52;;;;;;;27.30;9.52;;;;;;;16.83;63.39;96650.06;5012718;28;20022;-79
2023/01/17 07:05:19;;;;;;;27.85;8.48;;;;;;;16.85;63.03;96674.47;4994061;28;20041;-79
2023/01/17 07:07:45;;;;;;;23.45;7.47;;;;;;;16.88;63.00;96679.47;4995674;28;20627;-79
2023/01/17 07:10:13;;;;;;;18.48;7.15;;;;;;;16.88;63.01;96668.94;5004783;28;20117;-78
2023/01/17 07:12:38;;;;;;;17.50;6.57;;;;;;;16.89;62.81;96675.03;5007817;28;20443;-78
2023/01/17 07:15:04;;;;;;;14.75;5.85;;;;;;;16.91;62.85;96663.38;5009984;28;20029;-78
2023/01/17 07:17:30;;;;;;;19.42;6.18;;;;;;;16.95;62.60;96668.41;5005336;28;20145;-77
2023/01/17 07:19:55;;;;;;;21.98;7.43;;;;;;;16.96;62.57;96675.31;5006156;28;20548;-78
2023/01/17 07:22:20;;;;;;;20.85;5.82;;;;;;;16.97;62.35;96677.84;5004115;28;20065;-78
2023/01/17 07:24:46;;;;;;;15.15;5.80;;;;;;;16.98;62.54;96691.81;5000674;28;20444;-77
2023/01/17 07:27:11;;;;;;;17.23;5.15;;;;;;;17.00;62.33;96714.41;5007467;28;20532;-78
2023/01/17 07:29:37;;;;;;;22.70;6.50;;;;;;;17.00;62.39;96721.50;5006961;28;20014;-78
2023/01/17 07:32:02;;;;;;;17.80;5.30;;;;;;;17.00;62.26;96724.97;5004847;28;20554;-78
2023/01/17 07:34:28;;;;;;;17.10;5.63;;;;;;;17.01;62.03;96731.88;5003797;28;20105;-79
2023/01/17 07:36:53;;;;;;;18.05;4.93;;;;;;;17.02;61.83;96741.53;5002082;28;20062;-78
2023/01/17 07:39:19;;;;;;;12.90;4.60;;;;;;;17.04;61.71;96757.16;5006042;28;20021;-78
2023/01/17 07:41:45;;;;;;;12.77;4.97;;;;;;;17.03;61.73;96766.03;5001666;28;20391;-78
2023/01/17 07:44:12;;;;;;;12.18;4.68;;;;;;;17.04;61.58;96770.34;5004683;28;20022;-77
2023/01/17 07:46:37;;;;;;;15.25;5.35;;;;;;;17.10;61.27;96782.97;5004836;28;20551;-78
2023/01/17 07:49:03;;;;;;;14.82;4.70;;;;;;;17.08;61.32;96778.81;5007747;28;20018;-77
2023/01/17 07:51:28;;;;;;;11.65;4.20;;;;;;;17.10;61.38;96784.78;5004586;28;20395;-77
2023/01/17 07:53:54;;;;;;;13.05;4.32;;;;;;;17.10;61.30;96793.50;5004650;28;20022;-77
2023/01/17 07:56:19;;;;;;;13.80;4.25;;;;;;;17.08;61.16;96782.28;5001254;28;20026;-77
2023/01/17 07:58:46;;;;;;;12.63;4.32;;;;;;;17.10;60.90;96798.78;5011155;28;20030;-78
2023/01/17 08:01:12;;;;;;;10.85;3.78;;;;;;;17.09;61.21;96799.75;5005030;28;20022;-78
2023/01/17 08:03:38;;;;;;;12.05;3.92;;;;;;;17.10;60.95;96817.22;5005813;28;20018;-77
2023/01/17 08:06:24;;;;;;;9.05;3.55;;;;;;;17.10;60.80;96819.88;4998202;28;20075;-77
2023/01/17 08:08:53;;;;;;;11.68;3.28;;;;;;;17.09;60.89;96823.47;5004489;28;20039;-78
2023/01/17 08:11:19;;;;;;;9.10;3.38;;;;;;;17.11;60.80;96824.19;5004951;28;20113;-78
2023/01/17 08:13:45;;;;;;;7.85;3.88;;;;;;;17.11;60.66;96818.91;5003455;28;20109;-78
2023/01/17 08:16:12;;;;;;;9.68;3.40;;;;;;;17.10;60.55;96819.03;5004817;28;20038;-77
2023/01/17 08:18:37;;;;;;;10.25;3.38;;;;;;;17.11;60.66;96834.72;4999370;28;20389;-77
2023/01/17 08:21:03;;;;;;;9.57;3.00;;;;;;;17.12;60.35;96843.44;5008318;28;20085;-77
2023/01/17 08:23:31;;;;;;;10.23;3.75;;;;;;;17.12;60.40;96856.63;5009452;28;20033;-77
2023/01/17 08:26:01;;;;;;;8.95;2.85;;;;;;;17.10;60.58;96851.47;4994449;28;20022;-77
2023/01/17 08:28:26;;;;;;;8.98;3.30;;;;;;;17.10;60.16;96855.94;5006562;28;20049;-77
2023/01/17 08:30:51;;;;;;;7.85;2.80;;;;;;;17.10;60.31;96862.03;5012161;28;20053;-77
2023/01/17 08:33:17;;;;;;;8.48;3.38;;;;;;;17.09;60.25;96865.63;5005439;28;20054;-77
2023/01/17 08:35:53;;;;;;;8.38;2.97;;;;;;;17.11;60.17;96868.97;5007026;28;20476;-77
2023/01/17 08:38:19;;;;;;;10.57;3.00;;;;;;;17.10;60.30;96871.75;5005021;28;20045;-78
2023/01/17 08:40:45;;;;;;;8.00;3.00;;;;;;;17.12;60.24;96870.66;5007073;28;20025;-78
2023/01/17 08:43:10;;;;;;;7.88;2.90;;;;;;;17.13;60.25;96871.47;5012133;28;20060;-77
2023/01/17 08:45:36;;;;;;;6.90;2.25;;;;;;;17.11;60.43;96884.78;4997824;28;20496;-78
2023/01/17 08:48:01;;;;;;;6.97;3.00;;;;;;;17.14;60.28;96895.06;5002072;28;20492;-77
2023/01/17 08:50:27;;;;;;;9.48;3.05;;;;;;;17.12;60.17;96881.19;5000913;28;20511;-78
2023/01/17 08:52:57;;;;;;;7.22;2.88;;;;;;;17.11;60.09;96899.75;5013611;28;20026;-78
2023/01/17 08:55:22;;;;;;;10.00;2.83;;;;;;;17.14;60.42;96895.06;5008736;28;20037;-78
2023/01/17 08:57:48;;;;;;;7.93;2.70;;;;;;;17.14;60.43;96910.03;5010963;28;20035;-78
2023/01/17 09:00:14;;;;;;;9.43;3.05;;;;;;;17.11;60.08;96913.78;5011343;28;20030;-78
2023/01/17 09:02:39;;;;;;;8.90;2.67;;;;;;;17.11;60.18;96929.59;4999416;28;20428;-77
2023/01/17 09:05:05;;;;;;;8.32;2.78;;;;;;;17.14;60.36;96931.94;5001839;28;20080;-78
2023/01/17 09:07:30;;;;;;;8.55;2.15;;;;;;;17.12;60.23;96935.66;5017916;28;20030;-77
2023/01/17 09:09:56;;;;;;;9.40;2.80;;;;;;;17.11;60.02;96937.50;4999197;28;20030;-77
2023/01/17 09:12:21;;;;;;;8.13;2.53;;;;;;;17.14;59.95;96931.94;4999772;28;20053;-77
2023/01/17 09:14:47;;;;;;;8.05;2.50;;;;;;;17.13;59.72;96935.56;4999615;28;20440;-78
2023/01/17 09:17:13;;;;;;;6.53;1.90;;;;;;;17.11;59.74;96932.22;4999694;28;20133;-78
2023/01/17 09:19:42;;;;;;;6.43;1.80;;;;;;;17.11;59.86;96921.69;5013821;28;20025;-77
2023/01/17 09:22:08;;;;;;;4.75;1.77;;;;;;;17.12;60.06;96912.81;5018733;28;20042;-77
2023/01/17 09:24:34;;;;;;;4.75;1.63;;;;;;;17.13;60.01;96892.53;5019048;28;20048;-78
2023/01/17 09:27:00;;;;;;;4.95;1.65;;;;;;;17.11;59.96;96882.16;5004274;28;20128;-78
2023/01/17 09:29:26;;;;;;;6.00;1.88;;;;;;;17.13;59.63;96882.84;5013558;28;20034;-78
2023/01/17 09:31:51;;;;;;;6.28;2.10;;;;;;;17.09;59.88;96897.25;5017731;28;20105;-78
2023/01/17 09:34:17;;;;;;;6.88;2.17;;;;;;;17.12;60.01;96902.25;5016383;28;20029;-78
2023/01/17 09:36:43;;;;;;;3.83;1.60;;;;;;;17.11;59.88;96915.56;5014947;28;20472;-78
2023/01/17 09:39:10;;;;;;;6.55;2.15;;;;;;;17.13;59.65;96919.75;5002186;28;20034;-77
2023/01/17 09:41:50;;;;;;;5.68;1.65;;;;;;;17.12;59.82;96928.63;4995802;28;20664;-78
2023/01/17 09:44:30;;;;;;;4.40;1.50;;;;;;;17.11;59.75;96936.66;4995775;28;20030;-78
2023/01/17 09:47:09;;;;;;;6.00;1.90;;;;;;;17.13;59.41;96937.34;4993853;28;20030;-78
2023/01/17 09:49:41;;;;;;;6.03;1.60;;;;;;;17.10;59.55;96929.72;5011631;28;20156;-77
2023/01/17 09:52:11;;;;;;;7.03;2.10;;;;;;;17.13;59.94;96934.69;5015071;28;20530;-77
2023/01/17 09:54:39;;;;;;;5.68;1.95;;;;;;;17.11;59.41;96948.03;5013900;28;20034;-78
2023/01/17 09:57:29;;;;;;;6.38;1.83;;;;;;;17.10;59.54;96956.88;5014830;28;20179;-77
2023/01/17 10:00:19;;;;;;;4.40;1.60;;;;;;;17.11;59.68;96968.25;4996347;28;20088;-78
2023/01/17 10:03:05;;;;;;;4.22;1.40;;;;;;;17.08;59.70;96968.50;4995140;28;20034;-77
2023/01/17 10:06:15;;;;;;;7.20;1.55;;;;;;;17.09;59.69;96959.66;4953737;29;20132;-77
2023/01/17 10:08:54;;;;;;;3.83;1.45;;;;;;;17.09;59.71;96973.66;4913870;29;20139;-77
2023/01/17 10:11:31;;;;;;;6.15;1.73;;;;;;;17.06;59.36;96984.47;4935546;29;20044;-77
2023/01/17 10:14:23;;;;;;;4.25;1.65;;;;;;;17.07;59.11;96994.03;4935248;29;20413;-77
2023/01/17 10:17:16;;;;;;;4.05;1.38;;;;;;;17.04;59.31;96995.13;4896790;29;20041;-78
2023/01/17 10:19:59;;;;;;;3.63;1.30;;;;;;;17.07;59.20;96988.78;4896945;29;20048;-78
2023/01/17 10:22:32;;;;;;;4.97;1.75;;;;;;;17.07;59.34;96994.03;4896934;29;20495;-77
2023/01/17 10:25:04;;;;;;;3.72;1.50;;;;;;;17.08;59.19;96982.53;4897391;29;20502;-77
2023/01/17 10:27:55;;;;;;;3.70;1.20;;;;;;;17.07;59.26;96988.78;4880110;29;20037;-77
2023/01/17 10:30:44;;;;;;;4.28;1.35;;;;;;;17.10;58.97;96950.78;4870358;29;20116;-77
2023/01/17 10:33:27;;;;;;;2.90;1.00;;;;;;;17.08;59.10;96958.81;4877935;29;20104;-78
2023/01/17 10:36:06;;;;;;;2.88;1.15;;;;;;;17.07;59.07;96924.69;4877818;29;20052;-77
2023/01/17 10:38:36;;;;;;;2.45;1.05;;;;;;;17.08;58.83;96955.34;4884890;29;20039;-77
2023/01/17 10:41:19;;;;;;;3.85;1.35;;;;;;;17.09;58.92;96959.66;4896830;29;20036;-77
2023/01/17 10:43:48;;;;;;;3.60;1.02;;;;;;;17.07;58.86;96967.69;4878691;29;20045;-77
2023/01/17 10:46:35;;;;;;;6.20;1.52;;;;;;;17.06;58.75;96973.94;4913009;29;20463;-78
2023/01/17 10:49:02;;;;;;;5.05;1.50;;;;;;;17.06;58.99;96995.00;4917006;29;20067;-78
2023/01/17 10:51:49;;;;;;;2.65;1.10;;;;;;;17.02;59.09;97004.09;4938408;29;20058;-78
2023/01/17 10:54:53;;;;;;;3.10;0.98;;;;;;;17.06;58.91;97002.91;4979012;28;20034;-78
2023/01/17 10:57:22;;;;;;;2.97;0.90;;;;;;;17.05;58.92;96985.44;4994416;28;20038;-77
2023/01/17 10:59:48;;;;;;;2.80;1.00;;;;;;;17.05;58.91;96977.53;5014715;28;20030;-78
2023/01/17 11:02:24;;;;;;;4.38;1.30;;;;;;;17.05;59.12;96959.09;5018434;28;20105;-78
2023/01/17 11:04:53;;;;;;;3.40;1.13;;;;;;;17.04;58.75;96986.38;5000683;28;20429;-78
2023/01/17 11:07:26;;;;;;;3.10;1.02;;;;;;;17.04;58.88;96986.38;4997920;28;20041;-78
2023/01/17 11:09:56;;;;;;;3.13;1.02;;;;;;;17.04;58.89;96983.75;5015300;28;20080;-78
2023/01/17 11:12:45;;;;;;;3.85;1.20;;;;;;;17.05;58.63;96980.16;5017776;28;20022;-77
2023/01/17 11:15:10;;;;;;;3.70;1.00;;;;;;;17.04;58.80;96989.84;4999704;28;20034;-77
2023/01/17 11:17:46;;;;;;;4.03;0.90;;;;;;;17.06;58.57;96994.16;4997723;28;20050;-78
2023/01/17 11:20:11;;;;;;;2.80;0.90;;;;;;;17.03;58.60;96992.63;5016028;28;20092;-77
2023/01/17 11:22:37;;;;;;;3.30;1.10;;;;;;;17.03;58.59;96979.44;5018369;28;20026;-77
2023/01/17 11:25:03;;;;;;;2.78;0.90;;;;;;;17.02;58.67;96980.38;5016719;28;20553;-78
2023/01/17 11:27:34;;;;;;;3.58;1.08;;;;;;;17.01;58.65;96970.81;5017075;28;20030;-78
2023/01/17 11:30:17;;;;;;;4.15;1.00;;;;;;;17.03;58.65;96987.34;5017336;28;20407;-78
2023/01/17 11:33:03;;;;;;;3.13;1.05;;;;;;;16.99;58.75;96986.75;5017771;28;20517;-78
2023/01/17 11:35:33;;;;;;;2.95;1.10;;;;;;;17.00;58.33;96993.69;5018299;28;20026;-77
2023/01/17 11:38:11;;;;;;;3.05;0.88;;;;;;;17.00;58.36;96996.31;5017518;28;20026;-78
2023/01/17 11:40:44;;;;;;;3.50;1.05;;;;;;;16.99;58.20;96985.88;5017383;28;20425;-78
2023/01/17 11:43:29;;;;;;;2.58;0.85;;;;;;;16.96;58.39;96983.53;5016702;28;20041;-77
2023/01/17 11:46:19;;;;;;;2.92;0.80;;;;;;;16.99;58.48;96959.53;5017469;28;20383;-78
2023/01/17 11:49:00;;;;;;;2.65;0.88;;;;;;;16.98;58.20;96964.00;5018201;28;20025;-78
2023/01/17 11:51:40;;;;;;;2.13;0.73;;;;;;;17.01;58.26;96973.44;5016108;28;20025;-78
2023/01/17 11:54:39;;;;;;;1.73;0.70;;;;;;;17.00;58.34;96990.22;5016832;28;20391;-78
2023/01/17 11:57:06;;;;;;;3.35;0.90;;;;;;;16.99;58.10;96985.88;5013775;28;20441;-78
2023/01/17 11:59:37;;;;;;;2.58;0.90;;;;;;;16.96;58.08;96986.16;5016003;28;20069;-78
2023/01/17 12:02:21;;;;;;;3.33;0.85;;;;;;;16.98;58.30;96981.59;5016650;28;20038;-78
2023/01/17 12:04:55;;;;;;;2.85;0.80;;;;;;;16.96;58.33;96976.47;5000328;28;20473;-77
2023/01/17 12:07:39;;;;;;;2.40;0.80;;;;;;;16.97;58.13;96978.13;4997197;28;20027;-78
2023/01/17 12:10:16;;;;;;;2.30;1.10;;;;;;;16.96;58.39;96981.75;5015881;28;20052;-78
2023/01/17 12:16:26;;;;;;;2.40;0.80;;;;;;;16.96;58.13;96965.09;5021357;28;20041;-78
2023/01/17 12:19:00;;;;;;;2.85;0.80;;;;;;;16.94;58.44;96974.94;5018422;28;20046;-78
2023/01/17 12:21:50;;;;;;;2.63;0.88;;;;;;;16.92;58.32;96970.59;5020977;28;20559;-78
2023/01/17 12:24:35;;;;;;;2.85;1.05;;;;;;;16.95;58.15;96963.44;5020056;28;20282;-77
2023/01/17 12:27:33;;;;;;;2.90;0.90;;;;;;;16.97;58.12;96958.84;5019837;28;20033;-78
2023/01/17 12:30:04;;;;;;;2.17;0.80;;;;;;;16.96;58.34;96962.47;5020932;28;20026;-78
2023/01/17 12:32:52;;;;;;;2.50;0.70;;;;;;;16.95;57.96;96958.16;5021050;28;20108;-78
2023/01/17 12:35:26;;;;;;;2.50;0.80;;;;;;;16.94;58.17;96956.50;5019993;28;20591;-78
2023/01/17 12:38:01;;;;;;;2.53;0.80;;;;;;;16.95;58.36;96942.34;5021957;28;20561;-77
2023/01/17 12:40:33;;;;;;;2.35;0.70;;;;;;;16.95;58.31;96937.09;5021832;28;20119;-78
2023/01/17 12:43:12;;;;;;;2.45;0.90;;;;;;;16.96;58.06;96933.47;5020439;28;20495;-77
2023/01/17 12:45:42;;;;;;;2.65;0.80;;;;;;;16.95;58.22;96926.53;5019340;28;20088;-77
2023/01/17 12:48:15;;;;;;;2.17;0.80;;;;;;;16.96;58.06;96928.22;5013288;28;20023;-76
2023/01/17 12:51:18;;;;;;;1.88;0.60;;;;;;;16.97;58.19;96919.34;5016389;28;20415;-77
2023/01/17 12:53:59;;;;;;;1.98;0.70;;;;;;;16.96;58.14;96918.53;5020067;28;20116;-77
2023/01/17 12:56:24;;;;;;;1.73;0.60;;;;;;;16.94;58.11;96930.16;5008984;28;20032;-78
2023/01/17 12:58:59;;;;;;;2.35;0.90;;;;;;;16.94;58.01;96903.81;5000456;28;20113;-78
2023/01/17 13:01:30;;;;;;;3.00;0.82;;;;;;;16.96;58.21;96912.41;5016447;28;20472;-78
2023/01/17 13:04:24;;;;;;;2.63;1.02;;;;;;;16.96;57.78;96920.31;5019662;28;20072;-78
2023/01/17 13:06:59;;;;;;;1.20;0.60;;;;;;;16.94;57.66;96901.16;5019413;28;20101;-78
2023/01/17 13:09:30;;;;;;;3.40;0.90;;;;;;;16.94;57.88;96919.63;5018173;28;20114;-77
2023/01/17 13:12:01;;;;;;;1.85;0.75;;;;;;;16.92;57.64;96912.66;5000225;28;20026;-77
2023/01/17 13:14:27;;;;;;;2.72;0.80;;;;;;;16.94;57.98;96898.53;5000081;28;20034;-78